Главная страница
METAR-TAF:

METAR-TAF

Аэропорты :

Волгоград, Россия

Гумрак

широта: 48-47N, долгота: 044-22E, высота над уровнем моря: 145 м

Текущие метеонаблюдения

Эта сводка был подготовлена 29 минут назад, в 06:30 UTC
Ветер 12 Узел от юго-западный
Температура 29°C
Влажность 35%
Давление 1014 hPa
Видимость 10 км и более
Нет облачности ниже 1500 м, и нет кучево-дождевой облачности

METAR: URWW 270630Z 22006MPS CAVOK 29/12 Q1014 R24/010070 NOSIG

Время: 09:59 (06:59 UTC)

Прогноз

Эта сводка был подготовлена 2 часа и 2 минут назад, в 04:57 UTC
Прогноз действительный с 27-го 06 UTC до 27-го 15 UTC
Ветер 16 Узел от юго-западный с порывами до 27 Узел
Видимость 10 км и более
Нет облачности ниже 1500 м, и нет кучево-дождевой облачности
временами
С 27-го 06 UTC до 27-го 15 UTC
Ветер 10 Узел от южный-юго-западный с порывами до 19 Узел

TAF: URWW 270457Z 2706/2715 22008G14MPS CAVOK TEMPO 2706/2715 20005G10MPS

Метеонаблюдения и прогнозы для более 4000 аэропортов (сводки METAR и TAF).

Имеющиеся станции представлены на карте желтыми и красными точками.

Чтобы увидеть название станции, наведите на нее мышь.

Затем щелкните, чтобы увидеть метеонаблюдения и метеопрогнозы.

Управление картой: чтобы увеличить масштаб, щелкните зеленые кнопки с черным крестиком; чтобы уменьшить масштаб, щелкните зеленую кнопку с тире; для просмотра соседних карт щелкайте зеленые стрелки.


METAR-TAF: